Aeroporto :
LOGIN :

Iscrizione | Disclaimer

   EN    FR    IT 

 










Sommario :    VFR   VFR Marginale   IFR   IFR Intensivo   IFR Molto Intensivo
Visibilità : 
Base nubi : 
>= 8 km
>= 3000ft
5 / 8 km
1000 / 3000 ft
1500m / 5 km
500 / 1000 ft
800 / 1500m
200 / 500 ft
< 800m
< 200 ft
Simboli :   Temporali  Nebbia  Neve Forte  Precipitazioni Forti  Vento > 20 kt
SIGMETs :   Varie  Temporali  Ghiacco  Turbolenza  Onda orograficha  Ceneri Vulcaniche






- Altitudine del aeroporto : 472 ft
- Codice IATA : GME


UMGG - Gomel

ULTIMO METAR :
  • 270200Z 18006MPS 4000 -SHRA BR OVC005CB 04/04 Q0992 R10/290050 NOSIG RMK QBB160

METARs OBSOLETI :
  • 270100Z 11006MPS 2800 -SHRA BR OVC003CB 04/04 Q0992 R10/290050 TEMPO 2000 RMK QBB100
  • 270000Z 10004MPS 2000 -SHRA BR BKN002 OVC018CB 04/04 Q0993 R10/290050 TEMPO 1200 RMK QBB080

TAF TAF UMGG
Valido dal 27 a 00 ore il 28 a 00 ore UTC


262303Z 2700/2724 13005MPS 1800 BR BKN004
TEMPO 2700/2704 1000 SHRA BKN003 BKN015CB
FM270400 25006MPS 9999 BKN008
TEMPO 2704/2706 23007MPS 1200 BR BKN004
TEMPO 2706/2718 27006G11MPS SCT015CB
TEMPO 2718/2724 2000 BR BKN005



MetMap, La meteo Aeronautica in un colpo d'occhio ! - Copyright ORBIFLY Dicembre 2007 - Disclaimer

ORBIFLY MET'MAP TEAM :

Programmazione e sviluppo : Alexandra Zaïnal
Concezione : Baudouin d'Aumeries
Aiuto per la programmazione : Marc-Olivier Méhu
Supporto tecnico e logistico : Manuel Goepfert
Aiuto per la traduzione : Arnaldo La Scala

Contatto : metmap@orbifly.com




FONTI E CREDITI :

   NOAA